createdAt,value
2016-04-05T00:00:30.183Z,50.93
2016-04-05T00:01:30.202Z,50.81
2016-04-05T00:02:30.219Z,50.56
2016-04-05T00:03:30.254Z,51.03
2016-04-05T00:04:30.288Z,50.84
2016-04-05T00:05:30.307Z,51.22
2016-04-05T00:06:30.324Z,51.01
2016-04-05T00:07:30.344Z,51.1
2016-04-05T00:08:30.377Z,50.81
2016-04-05T00:09:30.411Z,51.2
2016-04-05T00:10:30.413Z,50.91
2016-04-05T00:11:30.448Z,51.01
2016-04-05T00:12:30.466Z,50.81
2016-04-05T00:13:30.499Z,50.72
2016-04-05T00:14:30.518Z,50.91
2016-04-05T00:15:30.536Z,50.72
2016-04-05T00:16:30.570Z,50.62
2016-04-05T00:17:30.589Z,50.91
2016-04-05T00:18:30.606Z,50.72
2016-04-05T00:19:30.641Z,51.2
2016-04-05T00:20:30.659Z,51.39
2016-04-05T00:21:30.678Z,50.91
2016-04-05T00:22:30.712Z,51.29
2016-04-05T00:23:30.730Z,51.39
2016-04-05T00:24:30.748Z,51.68
2016-04-05T00:25:30.781Z,51.68
2016-04-05T00:26:30.800Z,51.68
2016-04-05T00:27:30.834Z,51.48
2016-04-05T00:28:30.853Z,51.58
2016-04-05T00:29:30.872Z,51.29
2016-04-05T00:30:30.889Z,51.58
2016-04-05T00:31:30.923Z,51.58
2016-04-05T00:32:30.942Z,51.2
2016-04-05T00:33:30.961Z,51.58
2016-04-05T00:34:30.994Z,51.68
2016-04-05T00:35:31.028Z,51.58
2016-04-05T00:36:31.046Z,51.68
2016-04-05T00:37:31.064Z,51.58
2016-04-05T00:38:31.098Z,51.68
2016-04-05T00:39:31.116Z,51.58
2016-04-05T00:40:31.135Z,51.39
2016-04-05T00:41:31.154Z,51.77
2016-04-05T00:42:31.188Z,51.84
2016-04-05T00:43:31.205Z,51.93
2016-04-05T00:44:31.224Z,51.84
2016-04-05T00:45:31.257Z,51.93
2016-04-05T00:46:31.276Z,51.93
2016-04-05T00:47:31.310Z,52.03
2016-04-05T00:48:31.312Z,51.77
2016-04-05T00:49:31.346Z,51.75
2016-04-05T00:50:31.364Z,51.84
2016-04-05T00:51:31.383Z,51.75
2016-04-05T00:52:31.417Z,51.65
2016-04-05T00:53:31.450Z,51.07
2016-04-05T00:54:31.470Z,51.56
2016-04-05T00:55:31.472Z,51.84
2016-04-05T00:56:31.506Z,52.03
2016-04-05T00:57:31.525Z,52.03
2016-04-05T00:58:31.558Z,51.93
2016-04-05T00:59:31.592Z,51.93
2016-04-05T01:00:31.594Z,52.03
2016-04-05T01:01:31.628Z,51.75
2016-04-05T01:02:31.647Z,51.75
2016-04-05T01:03:31.666Z,51.75
2016-04-05T01:04:31.684Z,51.75
2016-04-05T01:05:31.750Z,51.65
2016-04-05T01:06:31.736Z,51.93
2016-04-05T01:07:31.755Z,51.93
2016-04-05T01:08:31.788Z,52.03
2016-04-05T01:09:31.807Z,51.75
2016-04-05T01:10:31.825Z,52.13
2016-04-05T01:11:31.859Z,51.93
2016-04-05T01:12:31.877Z,52.13
2016-04-05T01:13:31.895Z,52.42
2016-04-05T01:14:31.945Z,52.22
2016-04-05T01:15:31.948Z,52.13
2016-04-05T01:16:31.965Z,52.03
2016-04-05T01:17:32.000Z,52.13
2016-04-05T01:18:32.018Z,51.93
2016-04-05T01:19:32.037Z,52.13
2016-04-05T01:20:32.071Z,52.13
2016-04-05T01:21:32.089Z,52.03
2016-04-05T01:22:32.107Z,52.22
2016-04-05T01:23:32.141Z,52.39
2016-04-05T01:24:32.159Z,52.32
2016-04-05T01:25:32.178Z,52.39
2016-04-05T01:26:32.195Z,52.48
2016-04-05T01:27:32.230Z,52.01
2016-04-05T01:28:32.248Z,52.32
2016-04-05T01:29:32.297Z,52.1
2016-04-05T01:30:32.300Z,52.1
2016-04-05T01:31:32.303Z,52.77
2016-04-05T01:32:32.337Z,52.2
2016-04-05T01:33:32.372Z,52.48
2016-04-05T01:34:32.389Z,52.39
2016-04-05T01:35:32.408Z,52.67
2016-04-05T01:36:32.441Z,52.58
2016-04-05T01:37:32.460Z,52.58
2016-04-05T01:38:32.478Z,52.29
2016-04-05T01:39:32.496Z,52.48
2016-04-05T01:40:32.516Z,52.58
2016-04-05T01:41:32.549Z,52.48
2016-04-05T01:42:32.568Z,52.58
2016-04-05T01:43:32.586Z,52.39
2016-04-05T01:44:32.619Z,52.58
2016-04-05T01:45:32.627Z,52.77
2016-04-05T01:46:32.533Z,52.96
2016-04-05T01:47:32.530Z,52.67
2016-04-05T01:48:32.719Z,52.77
2016-04-05T01:49:32.776Z,52.77
2016-04-05T01:50:32.748Z,52.87
2016-04-05T01:51:32.765Z,52.77
2016-04-05T01:52:32.784Z,52.96
2016-04-05T01:53:32.818Z,52.77
2016-04-05T01:54:32.836Z,52.67
2016-04-05T01:55:32.855Z,52.77
2016-04-05T01:56:32.889Z,52.87
2016-04-05T01:57:32.907Z,52.87
2016-04-05T01:58:32.925Z,53.06
2016-04-05T01:59:32.959Z,52.96
2016-04-05T02:00:32.978Z,52.77
2016-04-05T02:01:32.996Z,52.96
2016-04-05T02:02:33.014Z,53.34
2016-04-05T02:03:33.048Z,53.34
2016-04-05T02:04:33.067Z,53.16
2016-04-05T02:05:33.086Z,53.16
2016-04-05T02:06:33.120Z,52.58
2016-04-05T02:07:33.137Z,52.39
2016-04-05T02:08:33.161Z,52.96
2016-04-05T02:09:33.180Z,53.06
2016-04-05T02:10:33.213Z,52.67
2016-04-05T02:11:33.231Z,53.34
2016-04-05T02:12:33.249Z,53.63
2016-04-05T02:13:33.268Z,52.58
2016-04-05T02:14:33.286Z,53.53
2016-04-05T02:15:33.320Z,52.77
2016-04-05T02:16:33.338Z,53.44
2016-04-05T02:17:33.371Z,53.44
2016-04-05T02:18:33.374Z,53.34
2016-04-05T02:19:33.409Z,53.34
2016-04-05T02:20:33.427Z,52.96
2016-04-05T02:21:33.446Z,53.44
2016-04-05T02:22:33.464Z,53.63
2016-04-05T02:23:33.498Z,53.06
2016-04-05T02:24:33.516Z,53.63
2016-04-05T02:25:33.534Z,53.7
2016-04-05T02:26:33.568Z,53.44
2016-04-05T02:27:33.570Z,53.16
2016-04-05T02:28:33.605Z,53.61
2016-04-05T02:29:33.639Z,53.25
2016-04-05T02:30:33.656Z,53.51
2016-04-05T02:31:33.676Z,53.34
2016-04-05T02:32:33.694Z,53.44
2016-04-05T02:33:33.728Z,53.51
2016-04-05T02:34:33.746Z,53.53
2016-04-05T02:35:33.764Z,53.34
2016-04-05T02:36:33.798Z,53.34
2016-04-05T02:37:33.801Z,53.32
2016-04-05T02:38:33.835Z,53.41
2016-04-05T02:39:33.853Z,53.41
2016-04-05T02:40:33.887Z,52.84
2016-04-05T02:41:33.905Z,53.13
2016-04-05T02:42:33.924Z,53.51
2016-04-05T02:43:33.957Z,53.61
2016-04-05T02:44:33.977Z,53.61
2016-04-05T02:45:34.009Z,53.61
2016-04-05T02:46:33.999Z,53.44
2016-04-05T02:47:34.005Z,52.94
2016-04-05T02:48:34.010Z,53.32
2016-04-05T02:49:34.031Z,52.84
2016-04-05T02:50:34.037Z,53.51
2016-04-05T02:51:34.052Z,53.22
2016-04-05T02:52:34.081Z,52.94
2016-04-05T02:53:34.095Z,53.89
2016-04-05T02:54:34.108Z,53.61
2016-04-05T02:55:34.123Z,53.89
2016-04-05T02:56:34.155Z,53.61
2016-04-05T02:57:34.156Z,53.61
2016-04-05T02:58:34.204Z,53.7
2016-04-05T02:59:34.221Z,53.99
2016-04-05T03:00:34.237Z,53.89
2016-04-05T03:01:34.255Z,53.8
2016-04-05T03:02:34.272Z,53.89
2016-04-05T03:03:34.290Z,53.89
2016-04-05T03:04:34.308Z,54.47
2016-04-05T03:05:34.341Z,54.56
2016-04-05T03:06:34.360Z,54.08
2016-04-05T03:07:34.393Z,53.61
2016-04-05T03:08:34.411Z,54.37
2016-04-05T03:09:34.446Z,54.27
2016-04-05T03:10:34.449Z,53.41
2016-04-05T03:11:34.483Z,53.51
2016-04-05T03:12:34.501Z,54.08
2016-04-05T03:13:34.535Z,54.27
2016-04-05T03:14:34.538Z,53.41
2016-04-05T03:15:34.571Z,54.27
2016-04-05T03:16:34.590Z,54.18
2016-04-05T03:17:34.608Z,54.27
2016-04-05T03:18:34.642Z,54.27
2016-04-05T03:19:34.660Z,54.37
2016-04-05T03:20:34.678Z,53.51
2016-04-05T03:21:34.712Z,54.27
2016-04-05T03:22:34.715Z,54.27
2016-04-05T03:23:34.749Z,53.41
2016-04-05T03:24:34.767Z,54.08
2016-04-05T03:25:34.786Z,54.18
2016-04-05T03:26:34.804Z,54.37
2016-04-05T03:27:34.838Z,54.27
2016-04-05T03:28:34.840Z,54.27
2016-04-05T03:29:34.876Z,54.27
2016-04-05T03:30:34.893Z,53.8
2016-04-05T03:31:34.912Z,53.61
2016-04-05T03:32:34.946Z,54.75
2016-04-05T03:33:34.964Z,53.99
2016-04-05T03:34:34.982Z,54.66
2016-04-05T03:35:35.001Z,54.75
2016-04-05T03:36:35.016Z,53.89
2016-04-05T03:37:35.050Z,53.8
2016-04-05T03:38:35.068Z,54.18
2016-04-05T03:39:35.087Z,54.37
2016-04-05T03:40:35.121Z,54.08
2016-04-05T03:41:35.139Z,53.8
2016-04-05T03:42:35.157Z,54.18
2016-04-05T03:43:35.175Z,53.7
2016-04-05T03:44:35.210Z,53.99
2016-04-05T03:45:35.228Z,54.56
2016-04-05T03:46:35.246Z,54.08
2016-04-05T03:47:35.265Z,54.75
2016-04-05T03:48:35.283Z,54.94
2016-04-05T03:49:35.317Z,54.66
2016-04-05T03:50:35.335Z,55.04
2016-04-05T03:51:35.354Z,55.04
2016-04-05T03:52:35.371Z,55.04
2016-04-05T03:53:35.406Z,55.13
2016-04-05T03:54:35.424Z,55.04
2016-04-05T03:55:35.443Z,55.04
2016-04-05T03:56:35.461Z,55.04
2016-04-05T03:57:35.479Z,55.04
2016-04-05T03:58:35.513Z,55.04
2016-04-05T03:59:35.531Z,55.23
2016-04-05T04:00:35.550Z,55.13
2016-04-05T04:01:35.583Z,55.04
2016-04-05T04:02:35.601Z,55.04
2016-04-05T04:03:35.620Z,54.94
2016-04-05T04:04:35.653Z,54.94
2016-04-05T04:05:35.672Z,55.04
2016-04-05T04:06:35.691Z,55.32
2016-04-05T04:07:35.709Z,55.13
2016-04-05T04:08:35.728Z,55.42
2016-04-05T04:09:35.761Z,55.04
2016-04-05T04:10:35.780Z,55.32
2016-04-05T04:11:35.798Z,55.04
2016-04-05T04:12:35.817Z,55.04
2016-04-05T04:13:35.835Z,55.71
2016-04-05T04:14:35.994Z,55.32
2016-04-05T04:15:36.011Z,55.71
2016-04-05T04:16:36.014Z,55.23
2016-04-05T04:17:36.017Z,55.32
2016-04-05T04:18:36.051Z,55.71
2016-04-05T04:19:36.054Z,55.13
2016-04-05T04:20:36.072Z,55.32
2016-04-05T04:21:36.074Z,55.42
2016-04-05T04:22:36.077Z,55.99
2016-04-05T04:23:36.079Z,55.8
2016-04-05T04:24:36.098Z,55.9
2016-04-05T04:25:36.163Z,55.9
2016-04-05T04:26:36.166Z,56.85
2016-04-05T04:27:36.169Z,56.47
2016-04-05T04:28:36.171Z,56.67
2016-04-05T04:29:36.190Z,56.18
2016-04-05T04:30:36.317Z,56.28
2016-04-05T04:31:36.304Z,56.76
2016-04-05T04:32:36.354Z,57.14
2016-04-05T04:33:36.357Z,57.24
2016-04-05T04:34:36.360Z,57.04
2016-04-05T04:35:36.378Z,57.14
2016-04-05T04:36:36.380Z,57.14
2016-04-05T04:37:36.384Z,57.04
2016-04-05T04:38:36.386Z,57.24
2016-04-05T04:39:36.420Z,57.04
2016-04-05T04:40:36.439Z,57.04
2016-04-05T04:41:36.472Z,57.53
2016-04-05T04:42:36.506Z,56.95
2016-04-05T04:43:36.337Z,57.43
2016-04-05T04:44:36.527Z,57.53
2016-04-05T04:45:36.561Z,56.85
2016-04-05T04:46:36.580Z,57.43
2016-04-05T04:47:36.614Z,56.85
2016-04-05T04:48:36.600Z,57.24
2016-04-05T04:49:36.635Z,57.04
2016-04-05T04:50:36.652Z,57.24
2016-04-05T04:51:36.687Z,57.24
2016-04-05T04:52:36.705Z,57.33
2016-04-05T04:53:36.738Z,56.76
2016-04-05T04:54:36.742Z,57.04
2016-04-05T04:55:36.760Z,57.33
2016-04-05T04:56:36.793Z,57.33
2016-04-05T04:57:36.813Z,57.04
2016-04-05T04:58:36.831Z,57.33
2016-04-05T04:59:36.849Z,57.33
2016-04-05T05:00:36.882Z,57.14
2016-04-05T05:01:36.901Z,57.33
2016-04-05T05:02:36.935Z,57.53
2016-04-05T05:03:36.937Z,57.62
2016-04-05T05:04:36.972Z,57.43
2016-04-05T05:05:37.006Z,57.53
2016-04-05T05:06:37.008Z,57.53
2016-04-05T05:07:37.042Z,57.33
2016-04-05T05:08:37.061Z,57.43
2016-04-05T05:09:37.079Z,57.33
2016-04-05T05:10:37.097Z,57.53
2016-04-05T05:11:37.116Z,57.14
2016-04-05T05:12:37.134Z,57.53
2016-04-05T05:13:37.167Z,57.33
2016-04-05T05:14:37.186Z,57.14
2016-04-05T05:15:37.205Z,57.24
2016-04-05T05:16:37.239Z,56.95
2016-04-05T05:17:37.241Z,57.43
2016-04-05T05:18:37.274Z,57.43
2016-04-05T05:19:37.294Z,57.04
2016-04-05T05:20:37.358Z,57.04
2016-04-05T05:21:37.345Z,56.95
2016-04-05T05:22:37.364Z,56.67
2016-04-05T05:23:37.382Z,57.14
2016-04-05T05:24:37.401Z,57.14
2016-04-05T05:25:37.435Z,57.14
2016-04-05T05:26:37.437Z,57.14
2016-04-05T05:27:37.471Z,57.24
2016-04-05T05:28:37.505Z,56.85
2016-04-05T05:29:37.524Z,56.95
2016-04-05T05:30:37.542Z,56.95
2016-04-05T05:31:37.560Z,56.57
2016-04-05T05:32:37.578Z,56.95
2016-04-05T05:33:37.612Z,56.67
2016-04-05T05:34:37.631Z,56.57
2016-04-05T05:35:37.664Z,56.67
2016-04-05T05:36:37.683Z,56.85
2016-04-05T05:37:37.701Z,56.47
2016-04-05T05:38:37.719Z,56.47
2016-04-05T05:39:37.754Z,56.47
2016-04-05T05:40:37.772Z,56.95
2016-04-05T05:41:37.789Z,56.67
2016-04-05T05:42:37.809Z,57.24
2016-04-05T05:43:37.827Z,57.33
2016-04-05T05:44:37.861Z,56.85
2016-04-05T05:45:37.879Z,56.67
2016-04-05T05:46:37.913Z,56.67
2016-04-05T05:47:37.931Z,56.47
2016-04-05T05:48:38.043Z,57.04
2016-04-05T05:49:38.061Z,56.57
2016-04-05T05:50:38.095Z,56.67
2016-04-05T05:51:38.098Z,57.04
2016-04-05T05:52:38.101Z,57.14
2016-04-05T05:53:38.104Z,56.95
2016-04-05T05:54:38.185Z,57.04
2016-04-05T05:55:38.171Z,57.04
2016-04-05T05:56:38.190Z,57.14
2016-04-05T05:57:38.193Z,57.14
2016-04-05T05:58:38.195Z,56.85
2016-04-05T05:59:38.213Z,56.67
2016-04-05T06:00:38.216Z,56.47
2016-04-05T06:01:38.219Z,56.47
2016-04-05T06:02:38.253Z,56.76
2016-04-05T06:03:38.270Z,57.14
2016-04-05T06:04:38.290Z,56.67
2016-04-05T06:05:38.307Z,56.95
2016-04-05T06:06:38.325Z,56.47
2016-04-05T06:07:38.360Z,56.28
2016-04-05T06:08:38.378Z,56.28
2016-04-05T06:09:38.397Z,56.38
2016-04-05T06:10:38.415Z,56.18
2016-04-05T06:11:38.448Z,56.6
2016-04-05T06:12:38.467Z,56.76
2016-04-05T06:13:38.501Z,56.57
2016-04-05T06:14:38.519Z,56.79
2016-04-05T06:15:38.538Z,56.57
2016-04-05T06:16:38.556Z,57.04
2016-04-05T06:17:38.574Z,56.88
2016-04-05T06:18:38.592Z,56.6
2016-04-05T06:19:38.627Z,56.98
2016-04-05T06:20:38.644Z,56.5
2016-04-05T06:21:38.663Z,57.26
2016-04-05T06:22:38.697Z,56.4
2016-04-05T06:23:38.716Z,57.07
2016-04-05T06:24:38.734Z,56.98
2016-04-05T06:25:38.752Z,56.69
2016-04-05T06:26:38.770Z,57.07
2016-04-05T06:27:38.805Z,56.5
2016-04-05T06:28:38.823Z,57.17
2016-04-05T06:29:38.950Z,56.4
2016-04-05T06:30:38.954Z,56.88
2016-04-05T06:31:38.987Z,57.07
2016-04-05T06:32:39.005Z,57.07
2016-04-05T06:33:38.961Z,56.31
2016-04-05T06:34:38.964Z,56.6
2016-04-05T06:35:38.982Z,56.6
2016-04-05T06:36:39.031Z,55.93
2016-04-05T06:37:39.018Z,56.79
2016-04-05T06:38:39.053Z,56.4
2016-04-05T06:39:39.056Z,56.6
2016-04-05T06:40:39.089Z,56.6
2016-04-05T06:41:39.108Z,56.5
2016-04-05T06:42:39.220Z,56.79
2016-04-05T06:43:39.144Z,56.79
2016-04-05T06:44:39.178Z,56.72
2016-04-05T06:45:39.197Z,56.82
2016-04-05T06:46:39.215Z,57.01
2016-04-05T06:47:39.249Z,57.01
2016-04-05T06:48:39.282Z,57.48
2016-04-05T06:49:39.286Z,57.29
2016-04-05T06:50:39.319Z,57.1
2016-04-05T06:51:39.338Z,56.62
2016-04-05T06:52:39.356Z,56.91
2016-04-05T06:53:39.374Z,56.62
2016-04-05T06:54:39.393Z,56.62
2016-04-05T06:55:39.427Z,56.62
2016-04-05T06:56:39.444Z,57.29
2016-04-05T06:57:39.463Z,57.51
2016-04-05T06:58:39.482Z,57.04
2016-04-05T06:59:39.499Z,56.65
2016-04-05T07:00:39.534Z,56.56
2016-04-05T07:01:39.552Z,57.13
2016-04-05T07:02:39.570Z,57.04
2016-04-05T07:03:39.604Z,56.75
2016-04-05T07:04:39.623Z,56.37
2016-04-05T07:05:39.656Z,56.37
2016-04-05T07:06:39.690Z,56.65
2016-04-05T07:07:39.695Z,56.56
2016-04-05T07:08:39.713Z,56.56
2016-04-05T07:09:39.747Z,56.56
2016-04-05T07:10:39.766Z,57.06
2016-04-05T07:11:39.783Z,56.1
2016-04-05T07:12:39.802Z,56.1
2016-04-05T07:13:39.820Z,56.01
2016-04-05T07:14:39.855Z,56.1
2016-04-05T07:15:39.888Z,56.2
2016-04-05T07:16:39.891Z,56.3
2016-04-05T07:17:39.910Z,56.39
2016-04-05T07:18:39.944Z,56.2
2016-04-05T07:19:39.961Z,56.2
2016-04-05T07:20:39.980Z,56.39
2016-04-05T07:21:40.014Z,56.2
2016-04-05T07:22:40.032Z,56.2
2016-04-05T07:23:40.066Z,56.2
2016-04-05T07:24:40.085Z,56.1
2016-04-05T07:25:40.102Z,56.2
2016-04-05T07:26:40.152Z,56.1
2016-04-05T07:27:40.154Z,56.68
2016-04-05T07:28:40.157Z,56.32
2016-04-05T07:29:40.238Z,56.61
2016-04-05T07:30:40.381Z,56.52
2016-04-05T07:31:40.244Z,56.61
2016-04-05T07:32:40.246Z,56.61
2016-04-05T07:33:40.280Z,56.42
2016-04-05T07:34:40.314Z,56.99
2016-04-05T07:35:40.333Z,56.99
2016-04-05T07:36:40.351Z,56.04
2016-04-05T07:37:40.369Z,56.42
2016-04-05T07:38:40.404Z,55.85
2016-04-05T07:39:40.422Z,56.23
2016-04-05T07:40:40.439Z,55.58
2016-04-05T07:41:40.474Z,55.78
2016-04-05T07:42:40.492Z,55.87
2016-04-05T07:43:40.526Z,55.97
2016-04-05T07:44:40.528Z,55.68
2016-04-05T07:45:40.641Z,56.07
2016-04-05T07:46:40.597Z,55.87
2016-04-05T07:47:40.615Z,56.07
2016-04-05T07:48:40.649Z,55.87
2016-04-05T07:49:40.652Z,55.49
2016-04-05T07:50:40.670Z,55.49
2016-04-05T07:51:40.688Z,55.49
2016-04-05T07:52:40.722Z,55.58
2016-04-05T07:53:40.741Z,55.58
2016-04-05T07:54:40.759Z,55.68
2016-04-05T07:55:40.793Z,55.78
2016-04-05T07:56:40.811Z,55.71
2016-04-05T07:57:40.845Z,55.8
2016-04-05T07:58:40.863Z,55.52
2016-04-05T07:59:40.913Z,55.13
2016-04-05T08:00:40.946Z,55.8
2016-04-05T08:01:40.934Z,55.52
2016-04-05T08:02:40.951Z,55.13
2016-04-05T08:03:40.987Z,55.62
2016-04-05T08:04:41.004Z,55.71
2016-04-05T08:05:41.039Z,55.62
2016-04-05T08:06:41.057Z,54.66
2016-04-05T08:07:41.075Z,55.8
2016-04-05T08:08:41.093Z,55.26
2016-04-05T08:09:41.112Z,54.68
2016-04-05T08:10:41.145Z,54.49
2016-04-05T08:11:41.164Z,54.78
2016-04-05T08:12:41.182Z,54.97
2016-04-05T08:13:41.217Z,54.97
2016-04-05T08:14:41.234Z,54.97
2016-04-05T08:15:41.284Z,55.07
2016-04-05T08:16:41.286Z,54.68
2016-04-05T08:17:41.321Z,54.3
2016-04-05T08:18:41.324Z,54.49
2016-04-05T08:19:41.357Z,54.49
2016-04-05T08:20:41.392Z,54.71
2016-04-05T08:21:41.410Z,54.8
2016-04-05T08:22:41.427Z,54.71
2016-04-05T08:23:41.446Z,54.8
2016-04-05T08:24:41.479Z,55
2016-04-05T08:25:41.499Z,54.8
2016-04-05T08:26:41.532Z,54.42
2016-04-05T08:27:41.551Z,54.42
2016-04-05T08:28:41.569Z,54.45
2016-04-05T08:29:41.603Z,54.25
2016-04-05T08:30:41.637Z,54.25
2016-04-05T08:31:41.640Z,53.68
2016-04-05T08:32:41.673Z,53.2
2016-04-05T08:33:41.692Z,53.58
2016-04-05T08:34:41.710Z,53.58
2016-04-05T08:35:41.745Z,53.01
2016-04-05T08:36:41.778Z,53.8
2016-04-05T08:37:41.781Z,53.2
2016-04-05T08:38:41.814Z,53.42
2016-04-05T08:39:41.848Z,53.42
2016-04-05T08:40:42.070Z,53.13
2016-04-05T08:41:41.885Z,52.94
2016-04-05T08:42:41.904Z,52.65
2016-04-05T08:43:41.937Z,52.68
2016-04-05T08:44:41.955Z,52.48
2016-04-05T08:45:42.114Z,52.39
2016-04-05T08:46:42.024Z,52.58
2016-04-05T08:47:42.027Z,52.2
2016-04-05T08:48:42.060Z,52.29
2016-04-05T08:49:42.079Z,52.1
2016-04-05T08:50:42.113Z,52
2016-04-05T08:51:42.130Z,51.91
2016-04-05T08:52:42.149Z,51.35
2016-04-05T08:53:42.182Z,51.84
2016-04-05T08:54:42.202Z,51.74
2016-04-05T08:55:42.219Z,52.03
2016-04-05T08:56:42.254Z,51.26
2016-04-05T08:57:42.272Z,51.45
2016-04-05T08:58:42.306Z,51.09
2016-04-05T08:59:42.324Z,51.09
2016-04-05T09:00:42.452Z,50.71
2016-04-05T09:01:42.376Z,50.51
2016-04-05T09:02:42.410Z,50.51
2016-04-05T09:03:42.429Z,50.9
2016-04-05T09:04:42.463Z,51.09
2016-04-05T09:05:42.481Z,50.23
2016-04-05T09:06:42.499Z,50.42
2016-04-05T09:07:42.533Z,50.32
2016-04-05T09:08:42.676Z,49.87
2016-04-05T09:09:42.590Z,50.73
2016-04-05T09:10:42.608Z,49.96
2016-04-05T09:11:42.659Z,50.35
2016-04-05T09:12:42.661Z,49.87
2016-04-05T09:13:42.680Z,50.15
2016-04-05T09:14:42.713Z,49.7
2016-04-05T09:15:42.778Z,49.6
2016-04-05T09:16:42.750Z,49.41
2016-04-05T09:17:42.893Z,49.51
2016-04-05T09:18:42.833Z,48.83
2016-04-05T09:19:42.836Z,48.54
2016-04-05T09:20:42.855Z,48.64
2016-04-05T09:21:42.888Z,48.57
2016-04-05T09:22:42.907Z,48.28
2016-04-05T09:23:43.050Z,47.89
2016-04-05T09:24:43.021Z,47.7
2016-04-05T09:25:43.040Z,47.8
2016-04-05T09:26:43.010Z,47.8
2016-04-05T09:27:43.046Z,47.12
2016-04-05T09:28:43.063Z,47.31
2016-04-05T09:29:43.176Z,47.03
2016-04-05T09:30:43.209Z,47.12
2016-04-05T09:31:43.228Z,47.22
2016-04-05T09:32:43.168Z,47.03
2016-04-05T09:33:43.201Z,47.03
2016-04-05T09:34:43.220Z,46.86
2016-04-05T09:35:43.254Z,46.76
2016-04-05T09:36:43.288Z,46.95
2016-04-05T09:37:43.307Z,46.76
2016-04-05T09:38:43.340Z,46.28
2016-04-05T09:39:43.468Z,46.37
2016-04-05T09:40:43.377Z,46.08
2016-04-05T09:41:43.411Z,46.08
2016-04-05T09:42:43.444Z,46.18
2016-04-05T09:43:43.479Z,45.89
2016-04-05T09:44:43.497Z,46.01
2016-04-05T09:45:43.530Z,46.08
2016-04-05T09:46:43.549Z,46.2
2016-04-05T09:47:43.583Z,45.89
2016-04-05T09:48:43.601Z,45.92
2016-04-05T09:49:43.619Z,45.92
2016-04-05T09:50:43.655Z,45.62
2016-04-05T09:51:43.688Z,45.72
2016-04-05T09:52:43.721Z,45.43
2016-04-05T09:53:43.756Z,45.72
2016-04-05T09:54:43.758Z,45.62
2016-04-05T09:55:43.793Z,45.43
2016-04-05T09:56:43.810Z,45.53
2016-04-05T09:57:43.844Z,45.43
2016-04-05T09:58:43.863Z,45.43
2016-04-05T09:59:43.896Z,45.17
2016-04-05T10:00:43.915Z,45.26
2016-04-05T10:01:43.948Z,45.17
2016-04-05T10:02:43.983Z,44.97
2016-04-05T10:03:44.001Z,44.97
2016-04-05T10:04:44.035Z,44.87
2016-04-05T10:05:44.069Z,45.07
2016-04-05T10:06:44.087Z,44.87
2016-04-05T10:07:44.120Z,44.59
2016-04-05T10:08:44.139Z,44.49
2016-04-05T10:09:44.205Z,44.49
2016-04-05T10:10:44.191Z,44.39
2016-04-05T10:11:44.225Z,44.29
2016-04-05T10:12:44.259Z,44.2
2016-04-05T10:13:44.278Z,43.72
2016-04-05T10:14:44.312Z,44.1
2016-04-05T10:15:44.331Z,43.84
2016-04-05T10:16:44.364Z,44.12
2016-04-05T10:17:44.398Z,44.12
2016-04-05T10:18:44.417Z,43.74
2016-04-05T10:19:44.450Z,43.84
2016-04-05T10:20:44.469Z,44.12
2016-04-05T10:21:44.502Z,44.12
2016-04-05T10:22:44.536Z,44.22
2016-04-05T10:23:44.571Z,44.12
2016-04-05T10:24:44.604Z,44.05
2016-04-05T10:25:44.608Z,43.57
2016-04-05T10:26:44.641Z,43.66
2016-04-05T10:27:44.675Z,43.37
2016-04-05T10:28:44.710Z,43.37
2016-04-05T10:29:44.727Z,43.57
2016-04-05T10:30:44.762Z,43.47
2016-04-05T10:31:44.779Z,42.7
2016-04-05T10:32:44.813Z,43.08
2016-04-05T10:33:44.848Z,43.08
2016-04-05T10:34:44.866Z,42.89
2016-04-05T10:35:44.900Z,42.31
2016-04-05T10:36:44.934Z,42.62
2016-04-05T10:37:44.951Z,42.14
2016-04-05T10:38:44.986Z,42.33
2016-04-05T10:39:45.020Z,42.33
2016-04-05T10:40:45.038Z,42.24
2016-04-05T10:41:45.072Z,42.33
2016-04-05T10:42:45.106Z,42.33
2016-04-05T10:43:45.124Z,42.35
2016-04-05T10:44:45.362Z,42.35
2016-04-05T10:45:45.192Z,42.16
2016-04-05T10:46:45.211Z,41.77
2016-04-05T10:47:45.244Z,41.77
2016-04-05T10:48:45.263Z,41.48
2016-04-05T10:49:45.313Z,41.09
2016-04-05T10:50:45.330Z,40.92
2016-04-05T10:51:45.349Z,41.11
2016-04-05T10:52:45.383Z,41.02
2016-04-05T10:53:45.416Z,41.11
2016-04-05T10:54:45.435Z,41.31
2016-04-05T10:55:45.468Z,41.11
2016-04-05T10:56:45.503Z,41.11
2016-04-05T10:57:45.521Z,40.92
2016-04-05T10:58:45.758Z,40.44
2016-04-05T10:59:45.590Z,40.15
2016-04-05T11:00:45.608Z,39.95
2016-04-05T11:01:45.641Z,40.34
2016-04-05T11:02:45.676Z,40.26
2016-04-05T11:03:45.693Z,39.97
2016-04-05T11:04:45.729Z,40.17
2016-04-05T11:05:45.762Z,39.88
2016-04-05T11:06:45.796Z,39.88
2016-04-05T11:07:45.660Z,40.07
2016-04-05T11:08:45.845Z,39.88
2016-04-05T11:09:45.865Z,39.78
2016-04-05T11:10:45.898Z,39.51
2016-04-05T11:11:45.932Z,39.59
2016-04-05T11:12:45.950Z,39.41
2016-04-05T11:13:45.984Z,39.41
2016-04-05T11:14:46.018Z,39.32
2016-04-05T11:15:46.053Z,39.41
2016-04-05T11:16:46.071Z,39.32
2016-04-05T11:17:46.104Z,39.41
2016-04-05T11:18:46.139Z,39.34
2016-04-05T11:19:46.173Z,39.43
2016-04-05T11:20:46.191Z,39.34
2016-04-05T11:21:46.240Z,39.34
2016-04-05T11:22:46.243Z,38.95
2016-04-05T11:23:46.278Z,39.04
2016-04-05T11:24:46.311Z,38.66
2016-04-05T11:25:46.344Z,38.46
2016-04-05T11:26:46.550Z,38.48
2016-04-05T11:27:46.413Z,38.29
2016-04-05T11:28:46.431Z,37.81
2016-04-05T11:29:46.575Z,38
2016-04-05T11:30:46.593Z,38.09
2016-04-05T11:31:46.627Z,38.09
2016-04-05T11:32:46.630Z,37.9
2016-04-05T11:33:46.632Z,36.85
2016-04-05T11:34:46.635Z,37.15
2016-04-05T11:35:46.653Z,37.05
2016-04-05T11:36:46.796Z,37.05
2016-04-05T11:37:46.815Z,36.27
2016-04-05T11:38:46.832Z,36.76
2016-04-05T11:39:46.976Z,36.66
2016-04-05T11:40:46.838Z,36.27
2016-04-05T11:41:46.856Z,35.9
2016-04-05T11:42:46.890Z,35.88
2016-04-05T11:43:47.095Z,35.9
2016-04-05T11:44:46.926Z,35.69
2016-04-05T11:45:46.945Z,35.8
2016-04-05T11:46:46.994Z,35.9
2016-04-05T11:47:47.014Z,35.61
2016-04-05T11:48:47.047Z,35.51
2016-04-05T11:49:47.065Z,35.61
2016-04-05T11:50:47.099Z,35.71
2016-04-05T11:51:47.131Z,35.51
2016-04-05T11:52:47.157Z,35.61
2016-04-05T11:53:47.181Z,35.22
2016-04-05T11:54:47.207Z,35.61
2016-04-05T11:55:47.232Z,35.71
2016-04-05T11:56:47.243Z,35.71
2016-04-05T11:57:47.274Z,35.51
2016-04-05T11:58:47.304Z,35.53
2016-04-05T11:59:47.334Z,35.51
2016-04-05T12:00:47.367Z,35.63
2016-04-05T12:01:47.381Z,35.53
2016-04-05T12:02:47.430Z,35.72
2016-04-05T12:03:47.448Z,35.82
2016-04-05T12:04:47.480Z,35.72
2016-04-05T12:05:47.497Z,35.24
2016-04-05T12:06:47.546Z,35.63
2016-04-05T12:07:47.580Z,35.53
2016-04-05T12:08:47.613Z,35.72
2016-04-05T12:09:47.631Z,35.53
2016-04-05T12:10:47.664Z,35.63
2016-04-05T12:11:47.698Z,35.55
2016-04-05T12:12:47.717Z,35.25
2016-04-05T12:13:47.750Z,35.06
2016-04-05T12:14:47.784Z,35.25
2016-04-05T12:15:47.834Z,35.06
2016-04-05T12:16:47.852Z,35.16
2016-04-05T12:17:47.886Z,34.97
2016-04-05T12:18:47.920Z,35.16
2016-04-05T12:19:48.204Z,35.06
2016-04-05T12:20:47.972Z,34.67
2016-04-05T12:21:48.022Z,34.97
2016-04-05T12:22:48.040Z,34.28
2016-04-05T12:23:48.074Z,34.67
2016-04-05T12:24:48.108Z,34.77
2016-04-05T12:25:48.142Z,34.97
2016-04-05T12:26:48.176Z,34.97
2016-04-05T12:27:48.194Z,34.77
2016-04-05T12:28:48.227Z,34.97
2016-04-05T12:29:48.263Z,34.79
2016-04-05T12:30:48.296Z,34.97
2016-04-05T12:31:48.471Z,34.97
2016-04-05T12:32:48.363Z,34.97
2016-04-05T12:33:48.398Z,34.48
2016-04-05T12:34:48.431Z,34.5
2016-04-05T12:35:48.590Z,34.3
2016-04-05T12:36:48.578Z,34.79
2016-04-05T12:37:48.627Z,34.79
2016-04-05T12:38:48.615Z,34.59
2016-04-05T12:39:48.633Z,34.2
2016-04-05T12:40:48.635Z,34.3
2016-04-05T12:41:48.762Z,34.4
2016-04-05T12:42:48.781Z,34.3
2016-04-05T12:43:48.815Z,34.4
2016-04-05T12:44:48.818Z,34.59
2016-04-05T12:45:48.837Z,34.3
2016-04-05T12:46:48.730Z,34.59
2016-04-05T12:47:48.888Z,34.3
2016-04-05T12:48:48.892Z,34.4
2016-04-05T12:49:48.910Z,34.69
2016-04-05T12:50:48.944Z,34.11
2016-04-05T12:51:48.978Z,34.79
2016-04-05T12:52:49.012Z,34.01
2016-04-05T12:53:49.045Z,34.2
2016-04-05T12:54:49.064Z,34.01
2016-04-05T12:55:49.113Z,34.03